Time,TemperatureF,DewpointF,PressureIn,WindDirection,WindDirectionDegrees,WindSpeedMPH,WindSpeedGustMPH,Humidity,HourlyPrecipIn,Conditions,Clouds,dailyrainin,SoftwareType,DateUTC
2013-09-21 01:21:00,48.0,31.0,-100.00,NNW,336,6.0,6.0,52,0.00,,,0.00,,2013-09-21 07:21:00,
2013-09-21 01:32:00,48.0,31.0,-100.00,NNW,336,6.0,6.0,52,0.00,,,0.00,,2013-09-21 07:32:00,
2013-09-21 01:52:00,48.0,30.0,-100.00,North,3,7.0,8.0,50,0.00,,,0.00,,2013-09-21 07:52:00,
2013-09-21 02:03:00,48.0,30.0,-100.00,North,3,7.0,8.0,50,0.00,,,0.00,,2013-09-21 08:03:00,
2013-09-21 02:12:00,48.0,30.0,-100.00,North,3,7.0,8.0,50,0.00,,,0.00,,2013-09-21 08:12:00,
2013-09-21 02:22:00,48.0,29.0,-100.00,North,354,7.0,8.0,48,0.00,,,0.00,,2013-09-21 08:22:00,
2013-09-21 02:32:00,48.0,29.0,-100.00,North,354,7.0,8.0,48,0.00,,,0.00,,2013-09-21 08:32:00,
2013-09-21 02:42:00,48.0,29.0,-100.00,North,354,7.0,8.0,48,0.00,,,0.00,,2013-09-21 08:42:00,
2013-09-21 03:11:00,47.0,29.0,-100.00,North,359,6.0,7.0,48,0.00,,,0.00,,2013-09-21 09:11:00,
2013-09-21 03:30:00,44.0,29.0,-100.00,North,0,6.0,7.0,55,0.00,,,0.00,,2013-09-21 09:30:00,
2013-09-21 03:43:00,45.0,30.0,-100.00,North,3,7.0,8.0,55,0.00,,,0.00,,2013-09-21 09:43:00,
2013-09-21 03:54:00,45.0,30.0,-100.00,North,3,7.0,8.0,55,0.00,,,0.00,,2013-09-21 09:54:00,
2013-09-21 04:03:00,45.0,30.0,-100.00,North,3,7.0,8.0,55,0.00,,,0.00,,2013-09-21 10:03:00,
2013-09-21 04:23:00,44.0,29.0,-100.00,North,0,6.0,7.0,55,0.00,,,0.00,,2013-09-21 10:23:00,
2013-09-21 04:52:00,44.0,29.0,-100.00,North,353,6.0,7.0,56,0.00,,,0.00,,2013-09-21 10:52:00,
2013-09-21 05:02:00,44.0,29.0,-100.00,North,353,6.0,7.0,56,0.00,,,0.00,,2013-09-21 11:02:00,
2013-09-21 05:23:00,44.0,29.0,-100.00,North,4,6.0,7.0,56,0.00,,,0.00,,2013-09-21 11:23:00,
2013-09-21 05:33:00,44.0,29.0,-100.00,North,4,6.0,7.0,56,0.00,,,0.00,,2013-09-21 11:33:00,
2013-09-21 05:52:00,44.0,30.0,-100.00,NNW,340,6.0,7.0,59,0.00,,,0.00,,2013-09-21 11:52:00,
2013-09-21 06:02:00,44.0,30.0,-100.00,NNW,340,6.0,7.0,59,0.00,,,0.00,,2013-09-21 12:02:00,
2013-09-21 06:21:00,42.0,32.0,-100.00,NW,313,6.0,7.0,69,0.00,,,0.00,,2013-09-21 12:21:00,
2013-09-21 06:32:00,42.0,32.0,-100.00,NW,313,6.0,7.0,69,0.00,,,0.00,,2013-09-21 12:32:00,
2013-09-21 06:52:00,44.0,32.0,-100.00,NW,323,4.0,4.0,62,0.00,,,0.00,,2013-09-21 12:52:00,
2013-09-21 07:02:00,44.0,32.0,-100.00,NW,323,4.0,4.0,62,0.00,,,0.00,,2013-09-21 13:02:00,
2013-09-21 07:21:00,43.0,32.0,-100.00,NNW,339,1.0,2.0,64,0.00,,,0.00,,2013-09-21 13:21:00,
2013-09-21 07:32:00,43.0,32.0,-100.00,NNW,339,1.0,2.0,64,0.00,,,0.00,,2013-09-21 13:32:00,
2013-09-21 07:52:00,43.0,32.0,-100.00,NE,42,2.0,4.0,66,0.00,,,0.00,,2013-09-21 13:52:00,
2013-09-21 08:02:00,43.0,32.0,-100.00,NE,42,2.0,4.0,66,0.00,,,0.00,,2013-09-21 14:02:00,
2013-09-21 08:22:00,40.0,32.0,-100.00,NW,311,4.0,6.0,72,0.00,,,0.00,,2013-09-21 14:22:00,
2013-09-21 08:32:00,40.0,32.0,-100.00,NW,311,4.0,6.0,72,0.00,,,0.00,,2013-09-21 14:32:00,
2013-09-21 08:52:00,46.0,36.0,-100.00,NNW,328,4.0,5.0,70,0.00,,,0.00,,2013-09-21 14:52:00,
2013-09-21 09:01:00,46.0,36.0,-100.00,NNW,328,4.0,5.0,70,0.00,,,0.00,,2013-09-21 15:01:00,
2013-09-21 09:22:00,50.0,36.0,-100.00,NNW,329,4.0,5.0,60,0.00,,,0.00,,2013-09-21 15:22:00,
2013-09-21 09:34:00,50.0,36.0,-100.00,NNW,329,4.0,5.0,60,0.00,,,0.00,,2013-09-21 15:34:00,
2013-09-21 09:55:00,57.0,38.0,-100.00,NW,319,5.0,6.0,49,0.00,,,0.00,,2013-09-21 15:55:00,
2013-09-21 10:05:00,57.0,38.0,-100.00,NW,319,5.0,6.0,49,0.00,,,0.00,,2013-09-21 16:05:00,
2013-09-21 10:24:00,63.0,38.0,-100.00,WNW,294,0.0,0.0,39,0.00,,,0.00,,2013-09-21 16:24:00,
2013-09-21 10:34:00,63.0,38.0,-100.00,WNW,294,0.0,0.0,39,0.00,,,0.00,,2013-09-21 16:34:00,
2013-09-21 10:54:00,63.0,39.0,-100.00,SSW,212,4.0,6.0,41,0.00,,,0.00,,2013-09-21 16:54:00,
2013-09-21 11:03:00,63.0,39.0,-100.00,SSW,212,4.0,6.0,41,0.00,,,0.00,,2013-09-21 17:03:00,
2013-09-21 11:23:00,66.0,40.0,-100.00,SW,220,3.0,4.0,39,0.00,,,0.00,,2013-09-21 17:23:00,
2013-09-21 11:34:00,66.0,40.0,-100.00,SW,220,3.0,4.0,39,0.00,,,0.00,,2013-09-21 17:34:00,
2013-09-21 11:52:00,71.0,39.0,-100.00,South,188,4.0,7.0,31,0.00,,,0.00,,2013-09-21 17:52:00,
2013-09-21 12:02:00,71.0,39.0,-100.00,South,188,4.0,7.0,31,0.00,,,0.00,,2013-09-21 18:02:00,
2013-09-21 12:22:00,72.0,37.0,-100.00,SSW,206,5.0,9.0,28,0.00,,,0.00,,2013-09-21 18:22:00,
2013-09-21 12:32:00,72.0,37.0,-100.00,SSW,206,5.0,9.0,28,0.00,,,0.00,,2013-09-21 18:32:00,
2013-09-21 12:52:00,74.0,35.0,-100.00,SSE,162,4.0,9.0,24,0.00,,,0.00,,2013-09-21 18:52:00,
2013-09-21 13:02:00,74.0,35.0,-100.00,SSE,162,4.0,9.0,24,0.00,,,0.00,,2013-09-21 19:02:00,
2013-09-21 13:21:00,75.0,36.0,-100.00,SSW,202,2.0,3.0,25,0.00,,,0.00,,2013-09-21 19:21:00,
2013-09-21 13:32:00,75.0,36.0,-100.00,SSW,202,2.0,3.0,25,0.00,,,0.00,,2013-09-21 19:32:00,
2013-09-21 13:52:00,77.0,35.0,-100.00,South,174,3.0,5.0,22,0.00,,,0.00,,2013-09-21 19:52:00,
2013-09-21 14:02:00,77.0,35.0,-100.00,South,174,3.0,5.0,22,0.00,,,0.00,,2013-09-21 20:02:00,
2013-09-21 14:22:00,77.0,34.0,-100.00,SW,226,6.0,9.0,21,0.00,,,0.00,,2013-09-21 20:22:00,
2013-09-21 14:32:00,77.0,34.0,-100.00,SW,226,6.0,9.0,21,0.00,,,0.00,,2013-09-21 20:32:00,
2013-09-21 14:42:00,77.0,34.0,-100.00,SW,226,6.0,9.0,21,0.00,,,0.00,,2013-09-21 20:42:00,
2013-09-21 15:12:00,79.0,32.0,-100.00,SSE,167,27.0,34.0,18,0.00,,,0.00,,2013-09-21 21:12:00,
2013-09-21 15:21:00,79.0,31.0,-100.00,SSE,158,20.0,24.0,17,0.00,,,0.00,,2013-09-21 21:21:00,
2013-09-21 15:45:00,79.0,30.0,-100.00,SSE,151,28.0,34.0,17,0.00,,,0.00,,2013-09-21 21:45:00,
2013-09-21 16:13:00,79.0,30.0,-100.00,SSE,151,18.0,24.0,16,0.00,,,0.00,,2013-09-21 22:13:00,
2013-09-21 16:43:00,79.0,27.0,-100.00,SSE,162,23.0,32.0,15,0.00,,,0.00,,2013-09-21 22:43:00,
2013-09-21 16:53:00,78.0,29.0,-100.00,South,179,15.0,22.0,16,0.00,,,0.00,,2013-09-21 22:53:00,
2013-09-21 17:03:00,78.0,29.0,-100.00,South,179,15.0,22.0,16,0.00,,,0.00,,2013-09-21 23:03:00,
2013-09-21 17:22:00,78.0,31.0,-100.00,SSE,161,16.0,21.0,18,0.00,,,0.00,,2013-09-21 23:22:00,
2013-09-21 17:42:00,78.0,32.0,-100.00,SSE,167,15.0,18.0,19,0.00,,,0.00,,2013-09-21 23:42:00,
2013-09-21 17:52:00,76.0,32.0,-100.00,SSE,165,15.0,19.0,20,0.00,,,0.00,,2013-09-21 23:52:00,
2013-09-21 18:12:00,75.0,35.0,-100.00,South,176,12.0,15.0,23,0.00,,,0.00,,2013-09-22 00:12:00,
2013-09-21 18:22:00,75.0,35.0,-100.00,South,176,12.0,15.0,23,0.00,,,0.00,,2013-09-22 00:22:00,
2013-09-21 18:31:00,75.0,35.0,-100.00,South,176,12.0,15.0,23,0.00,,,0.00,,2013-09-22 00:31:00,
2013-09-21 18:43:00,75.0,35.0,-100.00,South,176,12.0,15.0,23,0.00,,,0.00,,2013-09-22 00:43:00,
2013-09-21 19:42:00,72.0,34.0,-100.00,SSE,158,13.0,15.0,25,0.00,,,0.00,,2013-09-22 01:42:00,
2013-09-21 20:11:00,68.0,35.0,-100.00,SE,144,6.0,8.0,29,0.00,,,0.00,,2013-09-22 02:11:00,
2013-09-21 21:22:00,66.0,35.0,-100.00,ENE,62,6.0,7.0,32,0.00,,,-99.99,,2013-09-22 03:22:00,
2013-09-21 21:33:00,66.0,35.0,-100.00,ENE,62,6.0,7.0,32,0.00,,,-99.99,,2013-09-22 03:33:00,
2013-09-21 21:54:00,65.0,34.0,-100.00,East,83,6.0,8.0,32,0.00,,,-99.99,,2013-09-22 03:54:00,
2013-09-21 22:02:00,-999.0,-99.9,-100.00,East,83,6.0,8.0,-999,-99.99,,,-99.99,,2013-09-22 04:02:00,
2013-09-21 22:23:00,61.0,36.0,-100.00,ENE,72,4.0,6.0,39,0.00,,,-99.99,,2013-09-22 04:23:00,
2013-09-21 22:33:00,61.0,36.0,-100.00,ENE,72,4.0,6.0,39,0.00,,,-99.99,,2013-09-22 04:33:00,
2013-09-21 22:54:00,62.0,35.0,-100.00,East,92,6.0,9.0,37,0.00,,,-99.99,,2013-09-22 04:54:00,
2013-09-21 23:03:00,62.0,35.0,-100.00,East,92,6.0,9.0,37,0.00,,,-99.99,,2013-09-22 05:03:00,
2013-09-21 23:13:00,62.0,35.0,-100.00,East,92,6.0,9.0,37,0.00,,,-99.99,,2013-09-22 05:13:00,
2013-09-21 23:23:00,60.0,36.0,-100.00,South,178,7.0,9.0,40,0.00,,,-99.99,,2013-09-22 05:23:00,
2013-09-21 23:43:00,58.0,35.0,-100.00,SW,220,14.0,19.0,43,0.00,,,-99.99,,2013-09-22 05:43:00,
2013-09-21 23:53:00,56.0,36.0,-100.00,SSW,208,10.0,13.0,46,0.00,,,-99.99,,2013-09-22 05:53:00,